Map

Track Data

SID SEASON NUMBER BASIN SUBBASIN NAME ISO_TIME NATURE LAT LON WMO_WIND WMO_PRES WMO_AGENCY TRACK_TYPE DIST2LAND LANDFALL IFLAG USA_AGENCY USA_ATCF_ID USA_LAT USA_LON USA_RECORD USA_STATUS USA_WIND USA_PRES USA_SSHS USA_R34_NE USA_R34_SE USA_R34_SW USA_R34_NW USA_R50_NE USA_R50_SE USA_R50_SW USA_R50_NW USA_R64_NE USA_R64_SE USA_R64_SW USA_R64_NW USA_POCI USA_ROCI USA_RMW USA_EYE TOKYO_LAT TOKYO_LON TOKYO_GRADE TOKYO_WIND TOKYO_PRES TOKYO_R50_DIR TOKYO_R50_LONG TOKYO_R50_SHORT TOKYO_R30_DIR TOKYO_R30_LONG TOKYO_R30_SHORT TOKYO_LAND CMA_LAT CMA_LON CMA_CAT CMA_WIND CMA_PRES HKO_LAT HKO_LON HKO_CAT HKO_WIND HKO_PRES NEWDELHI_LAT NEWDELHI_LON NEWDELHI_GRADE NEWDELHI_WIND NEWDELHI_PRES NEWDELHI_CI NEWDELHI_DP NEWDELHI_POCI REUNION_LAT REUNION_LON REUNION_TYPE REUNION_WIND REUNION_PRES REUNION_TNUM REUNION_CI REUNION_RMW REUNION_R34_NE REUNION_R34_SE REUNION_R34_SW REUNION_R34_NW REUNION_R50_NE REUNION_R50_SE REUNION_R50_SW REUNION_R50_NW REUNION_R64_NE REUNION_R64_SE REUNION_R64_SW REUNION_R64_NW BOM_LAT BOM_LON BOM_TYPE BOM_WIND BOM_PRES BOM_TNUM BOM_CI BOM_RMW BOM_R34_NE BOM_R34_SE BOM_R34_SW BOM_R34_NW BOM_R50_NE BOM_R50_SE BOM_R50_SW BOM_R50_NW BOM_R64_NE BOM_R64_SE BOM_R64_SW BOM_R64_NW BOM_ROCI BOM_POCI BOM_EYE BOM_POS_METHOD BOM_PRES_METHOD NADI_LAT NADI_LON NADI_CAT NADI_WIND NADI_PRES WELLINGTON_LAT WELLINGTON_LON WELLINGTON_WIND WELLINGTON_PRES DS824_LAT DS824_LON DS824_STAGE DS824_WIND DS824_PRES TD9636_LAT TD9636_LON TD9636_STAGE TD9636_WIND TD9636_PRES TD9635_LAT TD9635_LON TD9635_WIND TD9635_PRES TD9635_ROCI NEUMANN_LAT NEUMANN_LON NEUMANN_CLASS NEUMANN_WIND NEUMANN_PRES MLC_LAT MLC_LON MLC_CLASS MLC_WIND MLC_PRES USA_GUST BOM_GUST BOM_GUST_PER REUNION_GUST REUNION_GUST_PER USA_SEAHGT USA_SEARAD_NE USA_SEARAD_SE USA_SEARAD_SW USA_SEARAD_NW STORM_SPEED STORM_DIR
1880235N13333 1880 15 NA NA NOT_NAMED 1880-08-22 06:00:00 TS 13.3000 -27.5000 main 1090 1090 _____________O -1 13.3000 -27.5000 TS 35 13 294
1880235N13333 1880 15 NA NA NOT_NAMED 1880-08-22 09:00:00 TS 13.5602 -28.0897 main 1149 1149 _____________P -1 13.5602 -28.0897 TS 37 13 293
1880235N13333 1880 15 NA NA NOT_NAMED 1880-08-22 12:00:00 TS 13.8000 -28.7000 main 1211 1211 _____________O -1 13.8000 -28.7000 TS 40 13 290
1880235N13333 1880 15 NA NA NOT_NAMED 1880-08-22 15:00:00 TS 14.0074 -29.3427 main 1274 1274 _____________P -1 14.0074 -29.3427 TS 40 13 288
1880235N13333 1880 15 NA NA NOT_NAMED 1880-08-22 18:00:00 TS 14.2000 -30.0000 main 1347 1347 _____________O -1 14.2000 -30.0000 TS 40 13 287
1880235N13333 1880 15 NA NA NOT_NAMED 1880-08-22 21:00:00 TS 14.3999 -30.6576 main 1421 1421 _____________P -1 14.3999 -30.6576 TS 45 13 288
1880235N13333 1880 15 NA NA NOT_NAMED 1880-08-23 00:00:00 TS 14.6000 -31.3000 main 1485 1485 _____________O -1 14.6000 -31.3000 TS 50 13 288
1880235N13333 1880 15 NA NA NOT_NAMED 1880-08-23 03:00:00 TS 14.7999 -31.9226 main 1548 1548 _____________P -1 14.7999 -31.9226 TS 52 12 289
1880235N13333 1880 15 NA NA NOT_NAMED 1880-08-23 06:00:00 TS 15.0000 -32.5000 main 1612 1612 _____________O -1 15.0000 -32.5000 TS 55 996 11 291
1880235N13333 1880 15 NA NA NOT_NAMED 1880-08-23 09:00:00 TS 15.2073 -33.0151 main 1666 1666 _____________P -1 15.2073 -33.0151 TS 55 10 293
1880235N13333 1880 15 NA NA NOT_NAMED 1880-08-23 12:00:00 TS 15.4000 -33.5000 main 1720 1720 _____________O -1 15.4000 -33.5000 TS 55 10 290
1880235N13333 1880 15 NA NA NOT_NAMED 1880-08-23 15:00:00 TS 15.5499 -34.0002 main 1773 1773 _____________P -1 15.5499 -34.0002 TS 55 10 287
1880235N13333 1880 15 NA NA NOT_NAMED 1880-08-23 18:00:00 TS 15.7000 -34.5000 main 1827 1827 _____________O -1 15.7000 -34.5000 TS 55 10 290
1880235N13333 1880 15 NA NA NOT_NAMED 1880-08-23 21:00:00 TS 15.8999 -35.0000 main 1881 1881 _____________P -1 15.8999 -35.0000 TS 55 10 293
1880235N13333 1880 15 NA NA NOT_NAMED 1880-08-24 00:00:00 TS 16.1000 -35.5000 main 1936 1936 _____________O -1 16.1000 -35.5000 TS 55 10 290
1880235N13333 1880 15 NA NA NOT_NAMED 1880-08-24 03:00:00 TS 16.2574 -36.0001 main 1990 1990 _____________P -1 16.2574 -36.0001 TS 55 10 287
1880235N13333 1880 15 NA NA NOT_NAMED 1880-08-24 06:00:00 TS 16.4000 -36.5000 main 2044 2044 _____________O -1 16.4000 -36.5000 TS 55 10 287
1880235N13333 1880 15 NA NA NOT_NAMED 1880-08-24 09:00:00 TS 16.5574 -37.0000 main 2082 2048 _____________P -1 16.5574 -37.0000 TS 55 10 287
1880235N13333 1880 15 NA NA NOT_NAMED 1880-08-24 12:00:00 TS 16.7000 -37.5000 main 2048 2016 _____________O -1 16.7000 -37.5000 TS 55 10 284
1880235N13333 1880 15 NA NA NOT_NAMED 1880-08-24 15:00:00 TS 16.7999 -38.0002 main 2016 1985 _____________P -1 16.7999 -38.0002 TS 55 10 282
1880235N13333 1880 15 NA NA NOT_NAMED 1880-08-24 18:00:00 TS 16.9000 -38.5000 main 1985 1955 _____________O -1 16.9000 -38.5000 TS 55 10 285
1880235N13333 1880 15 NA NA NOT_NAMED 1880-08-24 21:00:00 TS 17.0499 -39.0000 main 1955 1934 _____________P -1 17.0499 -39.0000 TS 55 10 287
1880235N13333 1880 15 NA NA NOT_NAMED 1880-08-25 00:00:00 TS 17.2000 -39.5000 main 1934 1907 _____________O -1 17.2000 -39.5000 TS 55 10 284
1880235N13333 1880 15 NA NA NOT_NAMED 1880-08-25 03:00:00 TS 17.2849 -40.0003 main 1907 1881 _____________P -1 17.2849 -40.0003 TS 52 10 282
1880235N13333 1880 15 NA NA NOT_NAMED 1880-08-25 06:00:00 TS 17.4000 -40.5000 main 1881 1864 _____________O -1 17.4000 -40.5000 TS 50 10 290
1880235N13333 1880 15 NA NA NOT_NAMED 1880-08-25 09:00:00 TS 17.6349 -40.9999 main 1864 1857 _____________P -1 17.6349 -40.9999 TS 50 11 298
1880235N13333 1880 15 NA NA NOT_NAMED 1880-08-25 12:00:00 TS 17.9000 -41.5000 main 1859 1844 _____________O -1 17.9000 -41.5000 TS 50 11 296
1880235N13333 1880 15 NA NA NOT_NAMED 1880-08-25 15:00:00 TS 18.0999 -42.0002 main 1847 1829 _____________P -1 18.0999 -42.0002 TS 50 10 293
1880235N13333 1880 15 NA NA NOT_NAMED 1880-08-25 18:00:00 TS 18.3000 -42.5000 main 1832 1815 _____________O -1 18.3000 -42.5000 TS 50 10 295
1880235N13333 1880 15 NA NA NOT_NAMED 1880-08-25 21:00:00 TS 18.5424 -43.0001 main 1818 1818 _____________P -1 18.5424 -43.0001 TS 50 10 319
1880235N13333 1880 15 NA NA NOT_NAMED 1880-08-26 00:00:00 TS 19.0333 -43.1667 50 hurdat_atl main 1851 1851 O____________O hurdat_atl AL051880 19.5000 -42.5000 TS 50 0 18.8000 -43.5000 TS 50 10 327
1880235N13333 1880 15 NA NA NOT_NAMED 1880-08-26 03:00:00 TS 19.3665 -43.5661 main 1865 1859 P____________P AL051880 19.6829 -43.0948 TS 50 0 19.0501 -44.0375 TS 47 10 308
1880235N13333 1880 15 NA NA NOT_NAMED 1880-08-26 06:00:00 TS 19.6600 -44.0200 50 hurdat_atl main 1871 1865 O____________O hurdat_atl AL051880 19.9000 -43.7000 TS 50 0 19.3000 -44.5000 TS 45 11 305
1880235N13333 1880 15 NA NA NOT_NAMED 1880-08-26 09:00:00 TS 19.9680 -44.4811 main 1874 1869 P____________P AL051880 20.1772 -44.3277 TS 50 0 19.5498 -44.7877 TS 45 11 303
1880235N13333 1880 15 NA NA NOT_NAMED 1880-08-26 12:00:00 TS 20.2667 -45.0000 50 hurdat_atl main 1879 1869 O____________O hurdat_atl AL051880 20.5000 -45.0000 TS 50 0 19.8000 -45.0000 TS 45 12 300
1880235N13333 1880 15 NA NA NOT_NAMED 1880-08-26 15:00:00 TS 20.5581 -45.5638 main 1881 1876 P____________P AL051880 20.8197 -45.7207 TS 50 0 20.0350 -45.2502 TS 42 13 300
1880235N13333 1880 15 NA NA NOT_NAMED 1880-08-26 18:00:00 TS 20.9000 -46.1667 50 hurdat_atl main 1886 1886 O____________O hurdat_atl AL051880 21.2000 -46.5000 TS 50 0 20.3000 -45.5000 TS 40 14 304
1880235N13333 1880 15 NA NA NOT_NAMED 1880-08-26 21:00:00 TS 21.3349 -46.8116 main 1899 1899 P____________P AL051880 21.6849 -47.3424 TS 55 0 20.6350 -45.7500 TS 40 15 307
1880235N13333 1880 15 NA NA NOT_NAMED 1880-08-27 00:00:00 TS 21.8000 -47.4667 60 hurdat_atl main 1900 1880 O____________O hurdat_atl AL051880 22.2000 -48.2000 TS 60 0 21.0000 -46.0000 TS 40 15 307
1880235N13333 1880 15 NA NA NOT_NAMED 1880-08-27 03:00:00 TS 22.2212 -48.0839 main 1872 1812 P____________P AL051880 22.6569 -49.0008 TS 60 0 21.3500 -46.2501 TS 37 16 305
1880235N13333 1880 15 NA NA NOT_NAMED 1880-08-27 06:00:00 TS 22.7182 -48.9000 60 hurdat_atl main 1802 1726 O____________O hurdat_atl AL051880 23.1000 -49.8000 TS 60 0 21.7000 -46.5000 TS 35 20 302
1880235N13333 1880 15 NA NA NOT_NAMED 1880-08-27 09:00:00 TS 23.2500 -49.8822 main 1719 1638 P____________P AL051880 23.5500 -50.6653 TS 60 0 22.0501 -46.7498 TS 32 22 300
1880235N13333 1880 15 NA NA NOT_NAMED 1880-08-27 12:00:00 TS 23.8222 -51.0000 60 hurdat_atl main 1628 1539 O____________O hurdat_atl AL051880 24.0000 -51.5000 TS 60 0 22.4000 -47.0000 TD 30 25 299
1880235N13333 1880 15 NA NA NOT_NAMED 1880-08-27 15:00:00 TS 24.4493 -52.2232 main 1539 1498 P_____________ AL051880 24.4493 -52.2232 TS 60 0 TD 20 302
1880235N13333 1880 15 NA NA NOT_NAMED 1880-08-27 18:00:00 TS 24.9000 -52.9000 60 hurdat_atl main 1498 1457 O_____________ hurdat_atl AL051880 24.9000 -52.9000 TS 60 0 16 306
1880235N13333 1880 15 NA NA NOT_NAMED 1880-08-27 21:00:00 TS 25.3574 -53.6152 main 1463 1404 P_____________ AL051880 25.3574 -53.6152 TS 60 0 21 306
1880235N13333 1880 15 NA NA NOT_NAMED 1880-08-28 00:00:00 TS 26.1556 -54.8222 60 hurdat_atl main 1410 1374 O_____________ hurdat_atl AL051880 25.8000 -54.3000 TS 60 0 24 307
1880235N13333 1880 15 NA NA NOT_NAMED 1880-08-28 03:00:00 TS 26.8089 -55.7653 main 1374 1361 P_____________ AL051880 26.1992 -54.8936 TS 60 0 20 308
1880235N13333 1880 15 NA NA NOT_NAMED 1880-08-28 06:00:00 TS 27.3909 -56.5909 60 hurdat_atl main 1363 1349 O_____________ hurdat_atl AL051880 26.6000 -55.5000 TS 60 0 19 308
1880235N13333 1880 15 NA NA NOT_NAMED 1880-08-28 09:00:00 TS 27.9578 -57.4288 main 1360 1347 P_____________ AL051880 27.0581 -56.2719 TS 65 1 16 307
1880235N13333 1880 15 NA NA NOT_NAMED 1880-08-28 12:00:00 TS 28.3333 -58.0000 70 hurdat_atl main 1350 1347 O_____________ hurdat_atl AL051880 27.5000 -57.0000 HU 70 1 11 308
1880235N13333 1880 15 NA NA NOT_NAMED 1880-08-28 15:00:00 TS 28.6401 -58.4085 main 1354 1354 P_____________ AL051880 27.8565 -57.4664 HU 70 1 9 311
1880235N13333 1880 15 NA NA NOT_NAMED 1880-08-28 18:00:00 TS 28.9333 -58.8000 70 hurdat_atl main 1361 1361 O_____________ hurdat_atl AL051880 28.2000 -57.9000 HU 70 1 10 308
1880235N13333 1880 15 NA NA NOT_NAMED 1880-08-28 21:00:00 TS 29.2618 -59.3184 main 1375 1370 P_____________ AL051880 28.5927 -58.5275 HU 70 1 11 306
1880235N13333 1880 15 NA NA NOT_NAMED 1880-08-29 00:00:00 TS 29.6000 -59.8667 70 hurdat_atl main 1378 1378 O_____________ hurdat_atl AL051880 29.0000 -59.2000 HU 70 1 11 306
1880235N13333 1880 15 NA NA NOT_NAMED 1880-08-29 03:00:00 TS 29.9406 -60.3745 main 1388 1388 P_____________ AL051880 29.4071 -59.8079 HU 70 1 11 308
1880235N13333 1880 15 NA NA NOT_NAMED 1880-08-29 06:00:00 TS 30.2667 -60.8667 70 hurdat_atl main 1411 1408 O_____________ hurdat_atl AL051880 29.8000 -60.4000 HU 70 1 10 306
1880235N13333 1880 15 NA NA NOT_NAMED 1880-08-29 09:00:00 TS 30.5549 -61.3579 main 1427 1385 P_____________ AL051880 30.1574 -61.0154 HU 70 1 10 304
1880235N13333 1880 15 NA NA NOT_NAMED 1880-08-29 12:00:00 TS 30.8333 -61.8333 70 hurdat_atl main 1385 1328 O_____________ hurdat_atl AL051880 30.5000 -61.6000 HU 70 1 10 306
1880235N13333 1880 15 NA NA NOT_NAMED 1880-08-29 15:00:00 TS 31.1307 -62.2961 main 1328 1279 P_____________ AL051880 30.8497 -62.1229 HU 70 1 10 308
1880235N13333 1880 15 NA NA NOT_NAMED 1880-08-29 18:00:00 TS 31.4333 -62.7333 70 hurdat_atl main 1279 1230 O_____________ hurdat_atl AL051880 31.2000 -62.6000 HU 70 1 10 310
1880235N13333 1880 15 NA NA NOT_NAMED 1880-08-29 21:00:00 TS 31.7457 -63.1434 main 1230 1182 P_____________ AL051880 31.5575 -63.0801 HU 70 1 9 311
1880235N13333 1880 15 NA NA NOT_NAMED 1880-08-30 00:00:00 TS 32.0333 -63.5333 70 hurdat_atl main 1182 1134 O_____________ hurdat_atl AL051880 31.9000 -63.5000 HU 70 1 9 307
1880235N13333 1880 15 NA NA NOT_NAMED 1880-08-30 03:00:00 TS 32.2702 -63.9569 main 1126 1091 P_____________ AL051880 32.2149 -63.8452 HU 70 1 8 304
1880235N13333 1880 15 NA NA NOT_NAMED 1880-08-30 06:00:00 TS 32.4667 -64.3000 70 hurdat_atl main 1091 1069 O_____________ hurdat_atl AL051880 32.5000 -64.1000 HU 70 1 6 311
1880235N13333 1880 15 NA NA NOT_NAMED 1880-08-30 09:00:00 TS 32.6481 -64.4810 main 1069 1052 P_____________ AL051880 32.7724 -64.2877 HU 75 1 4 326
1880235N13333 1880 15 NA NA NOT_NAMED 1880-08-30 12:00:00 TS 32.8000 -64.5667 80 hurdat_atl main 1052 1040 O_____________ hurdat_atl AL051880 33.0000 -64.4000 HU 80 1 3 332
1880235N13333 1880 15 NA NA NOT_NAMED 1880-08-30 15:00:00 TS 32.9316 -64.6609 main 1040 1036 P_____________ AL051880 33.1725 -64.4876 HU 80 1 3 334
1880235N13333 1880 15 NA NA NOT_NAMED 1880-08-30 18:00:00 TS 33.0333 -64.7000 80 hurdat_atl main 1036 1032 O_____________ hurdat_atl AL051880 33.3000 -64.5000 HU 80 1 2 356
1880235N13333 1880 15 NA NA NOT_NAMED 1880-08-30 21:00:00 TS 33.1125 -64.6876 main 1032 1032 P_____________ AL051880 33.4225 -64.4301 HU 80 1 2 30
1880235N13333 1880 15 NA NA NOT_NAMED 1880-08-31 00:00:00 TS 33.1667 -64.6000 80 hurdat_atl main 1037 1037 O_____________ hurdat_atl AL051880 33.5000 -64.3000 HU 80 1 2 68
1880235N13333 1880 15 NA NA NOT_NAMED 1880-08-31 03:00:00 TS 33.1975 -64.4366 main 1054 1054 P_____________ AL051880 33.5000 -64.1574 HU 80 1 3 78
1880235N13333 1880 15 NA NA NOT_NAMED 1880-08-31 06:00:00 TS 33.2333 -64.2333 80 977 hurdat_atl main 1072 1064 O_____________ hurdat_atl AL051880 33.5000 -64.0000 HU 80 977 1 3 72
1880235N13333 1880 15 NA NA NOT_NAMED 1880-08-31 09:00:00 TS 33.2991 -64.0549 main 1069 1067 P_____________ AL051880 33.5850 -63.8500 HU 80 1 3 62
1880235N13333 1880 15 NA NA NOT_NAMED 1880-08-31 12:00:00 TS 33.4000 -63.8667 80 hurdat_atl main 1067 1062 O_____________ hurdat_atl AL051880 33.7000 -63.7000 HU 80 1 4 54
1880235N13333 1880 15 NA NA NOT_NAMED 1880-08-31 15:00:00 TS 33.5375 -63.6625 main 1067 1057 P_____________ AL051880 33.7924 -63.5649 HU 80 1 5 50
1880235N13333 1880 15 NA NA NOT_NAMED 1880-08-31 18:00:00 TS 33.7000 -63.4333 80 hurdat_atl main 1061 1057 O_____________ hurdat_atl AL051880 33.9000 -63.4000 HU 80 1 5 53
1880235N13333 1880 15 NA NA NOT_NAMED 1880-08-31 21:00:00 TS 33.8567 -63.1616 main 1052 1052 P_____________ AL051880 34.0501 -63.1576 HU 80 1 6 53
1880235N13333 1880 15 NA NA NOT_NAMED 1880-09-01 00:00:00 TS 34.0333 -62.9000 80 hurdat_atl main 1058 1045 O_____________ hurdat_atl AL051880 34.2000 -62.9000 HU 80 1 5 44
1880235N13333 1880 15 NA NA NOT_NAMED 1880-09-01 03:00:00 TS 34.2474 -62.7090 main 1050 1030 P_____________ AL051880 34.3149 -62.6999 HU 80 1 5 35
1880235N13333 1880 15 NA NA NOT_NAMED 1880-09-01 06:00:00 TS 34.4667 -62.5333 80 hurdat_atl main 1030 1021 O_____________ hurdat_atl AL051880 34.4000 -62.5000 HU 80 1 5 39
1880235N13333 1880 15 NA NA NOT_NAMED 1880-09-01 09:00:00 TS 34.6550 -62.3116 main 1012 1004 P_____________ AL051880 34.4651 -62.2425 HU 75 1 5 44
1880235N13333 1880 15 NA NA NOT_NAMED 1880-09-01 12:00:00 TS 34.8333 -62.1000 70 hurdat_atl main 1006 987 O_____________ hurdat_atl AL051880 34.5000 -62.0000 HU 70 1 5 38
1880235N13333 1880 15 NA NA NOT_NAMED 1880-09-01 15:00:00 TS 35.0366 -61.9475 main 989 968 P_____________ AL051880 34.5074 -61.8349 HU 70 1 4 34
1880235N13333 1880 15 NA NA NOT_NAMED 1880-09-01 18:00:00 TS 35.2000 -61.8000 70 hurdat_atl main 971 963 O_____________ hurdat_atl AL051880 34.5000 -61.7000 HU 70 1 4 48
1880235N13333 1880 15 NA NA NOT_NAMED 1880-09-01 21:00:00 TS 35.2799 -61.6150 main 965 965 P_____________ AL051880 34.5000 -61.5500 HU 70 1 3 73
1880235N13333 1880 15 NA NA NOT_NAMED 1880-09-02 00:00:00 TS 35.3000 -61.4000 70 hurdat_atl main 971 971 O_____________ hurdat_atl AL051880 34.5000 -61.4000 HU 70 1 4 88
1880235N13333 1880 15 NA NA NOT_NAMED 1880-09-02 03:00:00 TS 35.2934 -61.1523 main 977 977 P_____________ AL051880 34.5000 -61.2575 HU 70 1 4 95
1880235N13333 1880 15 NA NA NOT_NAMED 1880-09-02 06:00:00 TS 35.2667 -60.9000 70 hurdat_atl main 987 987 O_____________ hurdat_atl AL051880 34.5000 -61.1000 HU 70 1 4 95
1880235N13333 1880 15 NA NA NOT_NAMED 1880-09-02 09:00:00 TS 35.2574 -60.6734 main 993 993 P_____________ AL051880 34.5000 -60.9000 HU 70 1 4 95
1880235N13333 1880 15 NA NA NOT_NAMED 1880-09-02 12:00:00 TS 35.2333 -60.4667 70 hurdat_atl main 1010 1010 O_____________ hurdat_atl AL051880 34.5000 -60.7000 HU 70 1 3 102
1880235N13333 1880 15 NA NA NOT_NAMED 1880-09-02 15:00:00 TS 35.1867 -60.2632 main 1017 1017 P_____________ AL051880 34.5075 -60.5425 HU 70 1 3 114
1880235N13333 1880 15 NA NA NOT_NAMED 1880-09-02 18:00:00 TS 35.1000 -60.1000 70 hurdat_atl main 1035 1035 O_____________ hurdat_atl AL051880 34.5000 -60.4000 HU 70 1 3 137
1880235N13333 1880 15 NA NA NOT_NAMED 1880-09-02 21:00:00 TS 34.9550 -59.9967 main 1049 1049 P_____________ AL051880 34.4500 -60.2499 HU 70 1 3 156
1880235N13333 1880 15 NA NA NOT_NAMED 1880-09-03 00:00:00 TS 34.8000 -59.9333 70 hurdat_atl main 1073 1073 O_____________ hurdat_atl AL051880 34.4000 -60.1000 HU 70 1 3 160
1880235N13333 1880 15 NA NA NOT_NAMED 1880-09-03 03:00:00 TS 34.6799 -59.8683 main 1083 1083 P_____________ AL051880 34.3850 -59.9500 HU 70 1 2 157
1880235N13333 1880 15 NA NA NOT_NAMED 1880-09-03 06:00:00 TS 34.6000 -59.8333 70 hurdat_atl main 1097 1097 O_____________ hurdat_atl AL051880 34.4000 -59.8000 HU 70 1 1 0
1880235N13333 1880 15 NA NA NOT_NAMED 1880-09-03 09:00:00 TS 34.5358 -59.8625 main 1104 1093 P_____________ AL051880 34.4199 -59.6723 HU 65 1 0 213
1880235N13333 1880 15 NA NA NOT_NAMED 1880-09-03 12:00:00 TS 34.5667 -59.8667 60 hurdat_atl main 1093 1087 O_____________ hurdat_atl AL051880 34.5000 -59.5000 TS 60 0 2 23
1880235N13333 1880 15 NA NA NOT_NAMED 1880-09-03 15:00:00 TS 34.7359 -59.7706 main 1087 1064 P_____________ AL051880 34.6701 -59.2226 TS 60 0 5 27
1880235N13333 1880 15 NA NA NOT_NAMED 1880-09-03 18:00:00 TS 35.0000 -59.6000 60 hurdat_atl main 1064 1042 O_____________ hurdat_atl AL051880 34.9000 -58.9000 TS 60 0 6 30
1880235N13333 1880 15 NA NA NOT_NAMED 1880-09-03 21:00:00 TS 35.2698 -59.3987 main 1042 1021 P_____________ AL051880 35.1350 -58.5924 TS 60 0 7 32
1880235N13333 1880 15 NA NA NOT_NAMED 1880-09-04 00:00:00 TS 35.6000 -59.1333 60 hurdat_atl main 1025 1001 O_____________ hurdat_atl AL051880 35.4000 -58.3000 TS 60 0 9 34
1880235N13333 1880 15 NA NA NOT_NAMED 1880-09-04 03:00:00 TS 35.9942 -58.8034 main 1001 978 P_____________ AL051880 35.6849 -58.0422 TS 60 0 10 34
1880235N13333 1880 15 NA NA NOT_NAMED 1880-09-04 06:00:00 TS 36.4333 -58.4333 60 hurdat_atl main 983 957 O_____________ hurdat_atl AL051880 36.0000 -57.8000 TS 60 0 11 34
1880235N13333 1880 15 NA NA NOT_NAMED 1880-09-04 09:00:00 TS 36.8732 -58.0712 main 952 920 P_____________ AL051880 36.3349 -57.5498 TS 60 0 11 33
1880235N13333 1880 15 NA NA NOT_NAMED 1880-09-04 12:00:00 TS 37.3333 -57.7000 60 hurdat_atl main 923 878 O_____________ hurdat_atl AL051880 36.7000 -57.3000 TS 60 0 11 32
1880235N13333 1880 15 NA NA NOT_NAMED 1880-09-04 15:00:00 TS 37.8120 -57.3204 main 881 838 P_____________ AL051880 37.0926 -57.0506 TS 60 0 11 32
1880235N13333 1880 15 NA NA NOT_NAMED 1880-09-04 18:00:00 TS 38.3000 -56.9333 60 hurdat_atl main 842 O_____________ hurdat_atl AL051880 37.5000 -56.8000 TS 60 0 12 32

About IBTrACS Database

This database is a web-friendly format of International Best Track Archive for Climate Stewardship (IBTrACS), a global best track data archive curated by NOAA dating back to 1842.

Updated: 2021-10-19